Thursday, March 23, 2017, 12:23 AM EDT

KSHD, Staunton / Shenandoah

Location: Weyers Cave, VA, United States Lat: 38.267
Local Time: 12:23 AM EDT ( 4:23 GMT) Lon: -78.9
Time Zone: US/Eastern Elev: 1200 ft

Show me the last for .
Show Decoded

2017-03-22 23:55 METAR KSHD 230355Z AUTO 00000KT 10SM CLR 00/M12 A3045 RMK AO2 T10051125 =
2017-03-22 23:35 METAR KSHD 230335Z AUTO 00000KT 10SM CLR M01/M12 A3045 RMK AO2 T10091125 =
2017-03-22 23:15 METAR KSHD 230315Z AUTO 36005KT 10SM CLR 00/M13 A3044 RMK AO2 T00011127 =
2017-03-22 22:55 METAR KSHD 230255Z AUTO 00000KT 10SM CLR 00/M12 A3044 RMK AO2 T10031124 =
2017-03-22 22:35 METAR KSHD 230235Z AUTO 00000KT 10SM CLR 00/M12 A3044 RMK AO2 T00011125 =
2017-03-22 22:15 METAR KSHD 230215Z AUTO 01004KT 10SM CLR 01/M13 A3043 RMK AO2 T00091129 =
2017-03-22 21:55 METAR KSHD 230155Z AUTO 03005KT 10SM CLR 01/M12 A3042 RMK AO2 T00071125 =
2017-03-22 21:35 METAR KSHD 230135Z AUTO 03004KT 10SM CLR 00/M12 A3041 RMK AO2 T10021120 =
2017-03-22 21:15 METAR KSHD 230115Z AUTO 02004KT 10SM CLR 00/M12 A3041 RMK AO2 T00041120 =
2017-03-22 20:55 METAR KSHD 230055Z AUTO 01005KT 10SM CLR 03/M12 A3040 RMK AO2 T00251124 =
2017-03-22 20:35 METAR KSHD 230035Z AUTO 03005KT 10SM CLR 01/M11 A3040 RMK AO2 T00101108 =
2017-03-22 20:15 METAR KSHD 230015Z AUTO 01005KT 10SM CLR 03/M11 A3038 RMK AO2 T00311114 =
2017-03-22 19:55 METAR KSHD 222355Z AUTO 36005KT 10SM CLR 04/M11 A3037 RMK AO2 T00401115 10082
                 20040 =
2017-03-22 19:35 METAR KSHD 222335Z AUTO 36005KT 10SM CLR 05/M12 A3036 RMK AO2 T00491119 =
2017-03-22 19:15 METAR KSHD 222315Z AUTO 36006KT 10SM CLR 06/M12 A3035 RMK AO2 T00551116 =
2017-03-22 18:55 METAR KSHD 222255Z AUTO 02008KT 10SM CLR 06/M11 A3034 RMK AO2 T00611114 =
2017-03-22 18:35 METAR KSHD 222235Z AUTO 02010KT 10SM CLR 07/M11 A3033 RMK AO2 T00671110 =
2017-03-22 18:15 METAR KSHD 222215Z AUTO 01011KT 10SM CLR 07/M11 A3032 RMK AO2 T00711110 =
2017-03-22 17:55 METAR KSHD 222155Z AUTO 01011G15KT 10SM CLR 07/M12 A3031 RMK AO2 T00731116 =
2017-03-22 17:35 METAR KSHD 222135Z AUTO 02012KT 10SM CLR 08/M11 A3031 RMK AO2 T00751114 =
2017-03-22 17:15 METAR KSHD 222115Z AUTO 03012G15KT 10SM CLR 08/M12 A3030 RMK AO2 T00781116 =
2017-03-22 16:55 METAR KSHD 222055Z AUTO 02010G19KT 10SM CLR 08/M11 A3029 RMK AO2 T00801113 =
2017-03-22 16:35 METAR KSHD 222035Z AUTO 02012KT 10SM CLR 08/M11 A3029 RMK AO2 T00781110 =
2017-03-22 16:15 METAR KSHD 222015Z AUTO 02015G18KT 10SM CLR 08/M11 A3028 RMK AO2 T00811114 =
2017-03-22 15:55 METAR KSHD 221955Z AUTO 01010G16KT 10SM CLR 08/M11 A3028 RMK AO2 T00821113 =
2017-03-22 15:35 METAR KSHD 221935Z AUTO 02011G21KT 10SM CLR 08/M12 A3028 RMK AO2 T00801121 =
2017-03-22 15:15 METAR KSHD 221915Z AUTO 01011G17KT 10SM CLR 08/M11 A3028 RMK AO2 T00781110 =
2017-03-22 14:55 METAR KSHD 221855Z AUTO 04014G19KT 10SM CLR 07/M12 A3028 RMK AO2 T00741120 =
2017-03-22 14:35 METAR KSHD 221835Z AUTO 01013G17KT 10SM CLR 08/M12 A3028 RMK AO2 T00791123 =
2017-03-22 14:15 METAR KSHD 221815Z AUTO 03015G19KT 10SM CLR 07/M12 A3028 RMK AO2 T00741120 =
2017-03-22 13:55 METAR KSHD 221755Z AUTO 02014G18KT 10SM CLR 07/M11 A3029 RMK AO2 T00701110 10074
                 20026 =
2017-03-22 13:35 METAR KSHD 221735Z AUTO 01011G19KT 10SM CLR 07/M11 A3029 RMK AO2 T00731111 =
2017-03-22 13:15 METAR KSHD 221715Z AUTO 02013G17KT 10SM CLR 07/M11 A3028 RMK AO2 T00691108 =
2017-03-22 12:55 METAR KSHD 221655Z AUTO 03010G18KT 10SM CLR 06/M11 A3028 RMK AO2 T00641112 =
2017-03-22 12:35 METAR KSHD 221635Z AUTO 03013KT 10SM CLR 06/M11 A3028 RMK AO2 T00601112 =
2017-03-22 12:15 METAR KSHD 221615Z AUTO 01012G16KT 10SM CLR 05/M11 A3027 RMK AO2 T00541114 =
2017-03-22 11:55 METAR KSHD 221555Z AUTO 01013G21KT 10SM CLR 05/M12 A3027 RMK AO2 T00531118 =
2017-03-22 11:35 METAR KSHD 221535Z AUTO 02016G20KT 10SM CLR 05/M11 A3026 RMK AO2 T00521114 =
2017-03-22 11:15 METAR KSHD 221515Z AUTO 01016KT 10SM CLR 05/M10 A3025 RMK AO2 T00521103 =
2017-03-22 10:55 METAR KSHD 221455Z AUTO 36011G17KT 10SM CLR 05/M08 A3025 RMK AO2 T00491082 =
2017-03-22 10:35 METAR KSHD 221435Z AUTO 35007KT 320V030 10SM CLR 05/M07 A3023 RMK AO2 T00451072
                 =
2017-03-22 10:15 METAR KSHD 221415Z AUTO 32008KT 290V360 10SM CLR 04/M06 A3023 RMK AO2 T00401064
                 =
2017-03-22 09:55 METAR KSHD 221355Z AUTO 35008KT 10SM CLR 04/M06 A3022 RMK AO2 T00411059 =
2017-03-22 09:35 METAR KSHD 221335Z AUTO 34009G16KT 10SM CLR 03/M07 A3021 RMK AO2 T00301066 =
2017-03-22 09:15 METAR KSHD 221315Z AUTO 33014G21KT 10SM CLR 04/M07 A3019 RMK AO2 T00361072 =
2017-03-22 08:55 METAR KSHD 221255Z AUTO 34015G22KT 10SM CLR 04/M06 A3018 RMK AO2 T00351062 =
2017-03-22 08:35 METAR KSHD 221235Z AUTO 35015G21KT 10SM CLR 04/M05 A3016 RMK AO2 T00361053 =
2017-03-22 08:15 METAR KSHD 221215Z AUTO 35019KT 10SM CLR 03/M04 A3014 RMK AO2 T00301042 =
2017-03-22 07:55 METAR KSHD 221155Z AUTO 01015G20KT 10SM CLR 03/M04 A3014 RMK AO2 T00301039 10099
                 20030 =
2017-03-22 07:35 METAR KSHD 221135Z AUTO 01016G22KT 10SM CLR 04/M04 A3011 RMK AO2 T00371036 =
2017-03-22 07:15 METAR KSHD 221115Z AUTO 36011KT 10SM CLR 04/M03 A3009 RMK AO2 T00421035 =
2017-03-22 06:55 METAR KSHD 221055Z AUTO 36010KT 10SM CLR 06/M03 A3008 RMK AO2 T00551031 =
2017-03-22 06:35 METAR KSHD 221035Z AUTO 35012KT 10SM CLR 07/M02 A3006 RMK AO2 T00721018 =
2017-03-22 06:15 METAR KSHD 221015Z AUTO 33007KT 10SM CLR 07/00 A3004 RMK AO2 T00721001 =
2017-03-22 05:55 METAR KSHD 220955Z AUTO 32007KT 10SM SCT050 08/00 A3002 RMK AO2 T00811005 =
2017-03-22 05:35 METAR KSHD 220935Z AUTO 31011G17KT 10SM CLR 09/00 A3001 RMK AO2 T00901003 =
2017-03-22 05:15 METAR KSHD 220915Z AUTO 31009G15KT 10SM SCT050 10/00 A3000 RMK AO2 T00960004 =
2017-03-22 04:55 METAR KSHD 220855Z AUTO 31008KT 10SM OVC050 10/02 A3000 RMK AO2 T00960018 =
2017-03-22 04:35 METAR KSHD 220835Z AUTO 29005KT 10SM BKN048 OVC055 09/02 A2999 RMK AO2 T00920022
                 =
2017-03-22 04:15 METAR KSHD 220815Z AUTO 30005KT 10SM OVC048 10/02 A2999 RMK AO2 T00950022 =
2017-03-22 03:55 METAR KSHD 220755Z AUTO 30005KT 10SM OVC050 09/02 A2999 RMK AO2 T00910024 =
2017-03-22 03:35 METAR KSHD 220735Z AUTO 31008KT 10SM OVC047 10/02 A2999 RMK AO2 T00980022 =
2017-03-22 03:15 METAR KSHD 220715Z AUTO 32007KT 10SM OVC047 09/02 A2999 RMK AO2 T00890024 =
2017-03-22 03:00 METAR KSHD 220700Z AUTO 00000KT 10SM BKN047 08/02 A2999 RMK AO2 T00750018 =
2017-03-22 02:35 METAR KSHD 220635Z AUTO 00000KT 10SM SCT047 08/02 A2998 RMK AO2 LTG DSNT SE
                 T00770015 =
2017-03-22 02:15 METAR KSHD 220615Z AUTO 00000KT 10SM CLR 08/02 A2998 RMK AO2 T00800016 =
2017-03-22 01:55 METAR KSHD 220555Z AUTO 30004KT 10SM CLR 09/02 A2997 RMK AO2 T00880018 10147
                 20088 401860050 =
2017-03-22 01:35 METAR KSHD 220535Z AUTO 30006KT 10SM CLR 09/02 A2997 RMK AO2 T00930018 =
2017-03-22 01:15 METAR KSHD 220515Z AUTO 29006KT 10SM CLR 11/02 A2998 RMK AO2 T01060018 =
2017-03-22 00:55 METAR KSHD 220455Z AUTO 28004KT 10SM CLR 11/02 A2999 RMK AO2 LTG DSNT SE
                 T01080017 =
2017-03-22 00:35 METAR KSHD 220435Z AUTO 29004KT 10SM SCT110 11/02 A2998 RMK AO2 T01060020 =

Support USWX by starting your Amazon purchase here.